sensor_id;sensor_type;location;lat;lon;timestamp;temperature;humidity
41904;DHT22;27586;51.124;4.182;2024-03-08T00:01:49;6.00;99.90
41904;DHT22;27586;51.124;4.182;2024-03-08T00:04:15;6.00;99.90
41904;DHT22;27586;51.124;4.182;2024-03-08T00:06:41;6.00;99.90
41904;DHT22;27586;51.124;4.182;2024-03-08T00:09:07;5.90;99.90
41904;DHT22;27586;51.124;4.182;2024-03-08T00:11:35;5.90;99.90
41904;DHT22;27586;51.124;4.182;2024-03-08T00:14:02;5.80;99.90
41904;DHT22;27586;51.124;4.182;2024-03-08T00:16:27;5.90;99.90
41904;DHT22;27586;51.124;4.182;2024-03-08T00:18:53;5.90;99.90
41904;DHT22;27586;51.124;4.182;2024-03-08T00:21:19;5.80;99.90
41904;DHT22;27586;51.124;4.182;2024-03-08T00:23:44;5.80;99.90
41904;DHT22;27586;51.124;4.182;2024-03-08T00:26:11;5.80;99.90
41904;DHT22;27586;51.124;4.182;2024-03-08T00:28:37;5.80;99.90
41904;DHT22;27586;51.124;4.182;2024-03-08T00:31:03;5.80;99.90
41904;DHT22;27586;51.124;4.182;2024-03-08T00:33:28;5.80;99.90
41904;DHT22;27586;51.124;4.182;2024-03-08T00:35:54;5.80;99.90
41904;DHT22;27586;51.124;4.182;2024-03-08T00:38:20;5.80;99.90
41904;DHT22;27586;51.124;4.182;2024-03-08T00:40:46;5.80;99.90
41904;DHT22;27586;51.124;4.182;2024-03-08T00:43:12;5.70;99.90
41904;DHT22;27586;51.124;4.182;2024-03-08T00:45:37;5.70;99.90
41904;DHT22;27586;51.124;4.182;2024-03-08T00:48:04;5.70;99.90
41904;DHT22;27586;51.124;4.182;2024-03-08T00:50:31;5.70;99.90
41904;DHT22;27586;51.124;4.182;2024-03-08T00:52:56;5.70;99.90
41904;DHT22;27586;51.124;4.182;2024-03-08T00:55:22;5.70;99.90
41904;DHT22;27586;51.124;4.182;2024-03-08T00:57:48;5.70;99.90
41904;DHT22;27586;51.124;4.182;2024-03-08T01:00:13;5.70;99.90
41904;DHT22;27586;51.124;4.182;2024-03-08T01:02:40;5.70;99.90
41904;DHT22;27586;51.124;4.182;2024-03-08T01:05:06;5.60;99.90
41904;DHT22;27586;51.124;4.182;2024-03-08T01:07:34;5.70;99.90
41904;DHT22;27586;51.124;4.182;2024-03-08T01:10:02;5.70;99.90
41904;DHT22;27586;51.124;4.182;2024-03-08T01:12:28;5.50;99.90
41904;DHT22;27586;51.124;4.182;2024-03-08T01:14:55;5.50;99.90
41904;DHT22;27586;51.124;4.182;2024-03-08T01:17:21;5.60;99.90
41904;DHT22;27586;51.124;4.182;2024-03-08T01:19:47;5.60;99.90
41904;DHT22;27586;51.124;4.182;2024-03-08T01:22:13;5.50;99.90
41904;DHT22;27586;51.124;4.182;2024-03-08T01:24:38;5.50;99.90
41904;DHT22;27586;51.124;4.182;2024-03-08T01:27:04;5.50;99.90
41904;DHT22;27586;51.124;4.182;2024-03-08T01:29:30;5.50;99.90
41904;DHT22;27586;51.124;4.182;2024-03-08T01:31:56;5.50;99.90
41904;DHT22;27586;51.124;4.182;2024-03-08T01:34:22;5.50;99.90
41904;DHT22;27586;51.124;4.182;2024-03-08T01:36:50;5.40;99.90
41904;DHT22;27586;51.124;4.182;2024-03-08T01:39:16;5.40;99.90
41904;DHT22;27586;51.124;4.182;2024-03-08T01:41:42;5.40;99.90
41904;DHT22;27586;51.124;4.182;2024-03-08T01:44:08;5.40;99.90
41904;DHT22;27586;51.124;4.182;2024-03-08T01:46:34;5.30;99.90
41904;DHT22;27586;51.124;4.182;2024-03-08T01:49:01;5.30;99.90
41904;DHT22;27586;51.124;4.182;2024-03-08T01:51:28;5.30;99.90
41904;DHT22;27586;51.124;4.182;2024-03-08T01:53:55;5.30;99.90
41904;DHT22;27586;51.124;4.182;2024-03-08T01:56:23;5.30;99.90
41904;DHT22;27586;51.124;4.182;2024-03-08T01:58:51;5.30;99.90
41904;DHT22;27586;51.124;4.182;2024-03-08T02:01:17;5.30;99.90
41904;DHT22;27586;51.124;4.182;2024-03-08T02:03:45;5.30;99.90
41904;DHT22;27586;51.124;4.182;2024-03-08T02:06:12;5.20;99.90
41904;DHT22;27586;51.124;4.182;2024-03-08T02:08:40;5.20;99.90
41904;DHT22;27586;51.124;4.182;2024-03-08T02:11:07;5.20;99.90
41904;DHT22;27586;51.124;4.182;2024-03-08T02:13:32;5.20;99.90
41904;DHT22;27586;51.124;4.182;2024-03-08T02:16:00;5.30;99.90
41904;DHT22;27586;51.124;4.182;2024-03-08T02:18:27;5.30;99.90
41904;DHT22;27586;51.124;4.182;2024-03-08T02:20:53;5.30;99.90
41904;DHT22;27586;51.124;4.182;2024-03-08T02:23:20;5.30;99.90
41904;DHT22;27586;51.124;4.182;2024-03-08T02:25:46;5.10;99.90
41904;DHT22;27586;51.124;4.182;2024-03-08T02:28:13;5.00;99.90
41904;DHT22;27586;51.124;4.182;2024-03-08T02:30:39;5.00;99.90
41904;DHT22;27586;51.124;4.182;2024-03-08T02:33:06;5.10;99.90
41904;DHT22;27586;51.124;4.182;2024-03-08T02:35:32;5.00;99.90
41904;DHT22;27586;51.124;4.182;2024-03-08T02:37:58;5.00;99.90
41904;DHT22;27586;51.124;4.182;2024-03-08T02:40:24;5.00;99.90
41904;DHT22;27586;51.124;4.182;2024-03-08T02:42:50;5.00;99.90
41904;DHT22;27586;51.124;4.182;2024-03-08T02:45:15;5.00;99.90
41904;DHT22;27586;51.124;4.182;2024-03-08T02:47:41;5.00;99.90
41904;DHT22;27586;51.124;4.182;2024-03-08T02:50:07;4.90;99.90
41904;DHT22;27586;51.124;4.182;2024-03-08T02:52:36;4.90;99.90
41904;DHT22;27586;51.124;4.182;2024-03-08T02:55:02;4.90;99.90
41904;DHT22;27586;51.124;4.182;2024-03-08T02:57:28;5.00;99.90
41904;DHT22;27586;51.124;4.182;2024-03-08T02:59:54;5.00;99.90
41904;DHT22;27586;51.124;4.182;2024-03-08T03:02:20;5.00;99.90
41904;DHT22;27586;51.124;4.182;2024-03-08T03:04:45;4.90;99.90
41904;DHT22;27586;51.124;4.182;2024-03-08T03:07:11;4.90;99.90
41904;DHT22;27586;51.124;4.182;2024-03-08T03:09:37;4.90;99.90
41904;DHT22;27586;51.124;4.182;2024-03-08T03:12:02;4.80;99.90
41904;DHT22;27586;51.124;4.182;2024-03-08T03:14:28;4.80;99.90
41904;DHT22;27586;51.124;4.182;2024-03-08T03:16:54;4.70;99.90
41904;DHT22;27586;51.124;4.182;2024-03-08T03:19:20;4.70;99.90
41904;DHT22;27586;51.124;4.182;2024-03-08T03:21:46;4.60;99.90
41904;DHT22;27586;51.124;4.182;2024-03-08T03:24:12;4.70;99.90
41904;DHT22;27586;51.124;4.182;2024-03-08T03:26:41;4.70;99.90
41904;DHT22;27586;51.124;4.182;2024-03-08T03:29:09;4.70;99.90
41904;DHT22;27586;51.124;4.182;2024-03-08T03:31:36;4.80;99.90
41904;DHT22;27586;51.124;4.182;2024-03-08T03:34:02;4.80;99.90
41904;DHT22;27586;51.124;4.182;2024-03-08T03:36:29;4.70;99.90
41904;DHT22;27586;51.124;4.182;2024-03-08T03:38:55;4.80;99.90
41904;DHT22;27586;51.124;4.182;2024-03-08T03:41:50;4.70;99.90
41904;DHT22;27586;51.124;4.182;2024-03-08T03:44:17;4.50;99.90
41904;DHT22;27586;51.124;4.182;2024-03-08T03:46:43;4.50;99.90
41904;DHT22;27586;51.124;4.182;2024-03-08T03:49:12;4.50;99.90
41904;DHT22;27586;51.124;4.182;2024-03-08T03:51:38;4.50;99.90
41904;DHT22;27586;51.124;4.182;2024-03-08T03:54:03;4.50;99.90
41904;DHT22;27586;51.124;4.182;2024-03-08T03:56:29;4.50;99.90
41904;DHT22;27586;51.124;4.182;2024-03-08T03:58:58;4.60;99.90
41904;DHT22;27586;51.124;4.182;2024-03-08T04:01:23;4.50;99.90
41904;DHT22;27586;51.124;4.182;2024-03-08T04:03:49;4.50;99.90
41904;DHT22;27586;51.124;4.182;2024-03-08T04:06:15;4.50;99.90
41904;DHT22;27586;51.124;4.182;2024-03-08T04:08:41;4.40;99.90
41904;DHT22;27586;51.124;4.182;2024-03-08T04:11:07;4.30;99.90
41904;DHT22;27586;51.124;4.182;2024-03-08T04:13:34;4.30;99.90
41904;DHT22;27586;51.124;4.182;2024-03-08T04:16:01;4.40;99.90
41904;DHT22;27586;51.124;4.182;2024-03-08T04:18:27;4.40;99.90
41904;DHT22;27586;51.124;4.182;2024-03-08T04:20:53;4.40;99.90
41904;DHT22;27586;51.124;4.182;2024-03-08T04:23:19;4.40;99.90
41904;DHT22;27586;51.124;4.182;2024-03-08T04:25:45;4.40;99.90
41904;DHT22;27586;51.124;4.182;2024-03-08T04:28:11;4.40;99.90
41904;DHT22;27586;51.124;4.182;2024-03-08T04:30:38;4.40;99.90
41904;DHT22;27586;51.124;4.182;2024-03-08T04:33:05;4.20;99.90
41904;DHT22;27586;51.124;4.182;2024-03-08T04:35:31;4.30;99.90
41904;DHT22;27586;51.124;4.182;2024-03-08T04:37:57;4.20;99.90
41904;DHT22;27586;51.124;4.182;2024-03-08T04:40:23;4.30;99.90
41904;DHT22;27586;51.124;4.182;2024-03-08T04:42:50;4.20;99.90
41904;DHT22;27586;51.124;4.182;2024-03-08T04:45:17;4.20;99.90
41904;DHT22;27586;51.124;4.182;2024-03-08T04:47:42;4.20;99.90
41904;DHT22;27586;51.124;4.182;2024-03-08T04:50:08;4.10;99.90
41904;DHT22;27586;51.124;4.182;2024-03-08T04:52:35;4.10;99.90
41904;DHT22;27586;51.124;4.182;2024-03-08T04:55:01;4.10;99.90
41904;DHT22;27586;51.124;4.182;2024-03-08T04:57:30;4.20;99.90
41904;DHT22;27586;51.124;4.182;2024-03-08T04:59:57;4.20;99.90
41904;DHT22;27586;51.124;4.182;2024-03-08T05:02:24;4.20;99.90
41904;DHT22;27586;51.124;4.182;2024-03-08T05:04:50;4.20;99.90
41904;DHT22;27586;51.124;4.182;2024-03-08T05:07:16;4.10;99.90
41904;DHT22;27586;51.124;4.182;2024-03-08T05:09:42;4.20;99.90
41904;DHT22;27586;51.124;4.182;2024-03-08T05:12:07;4.20;99.90
41904;DHT22;27586;51.124;4.182;2024-03-08T05:14:33;4.20;99.90
41904;DHT22;27586;51.124;4.182;2024-03-08T05:17:00;4.10;99.90
41904;DHT22;27586;51.124;4.182;2024-03-08T05:19:26;4.10;99.90
41904;DHT22;27586;51.124;4.182;2024-03-08T05:21:52;4.20;99.90
41904;DHT22;27586;51.124;4.182;2024-03-08T05:24:18;4.10;99.90
41904;DHT22;27586;51.124;4.182;2024-03-08T05:26:44;4.10;99.90
41904;DHT22;27586;51.124;4.182;2024-03-08T05:29:10;4.00;99.90
41904;DHT22;27586;51.124;4.182;2024-03-08T05:31:47;4.00;99.90
41904;DHT22;27586;51.124;4.182;2024-03-08T05:34:13;3.90;99.90
41904;DHT22;27586;51.124;4.182;2024-03-08T05:36:43;4.00;99.90
41904;DHT22;27586;51.124;4.182;2024-03-08T05:39:21;4.10;99.90
41904;DHT22;27586;51.124;4.182;2024-03-08T05:41:47;4.10;99.90
41904;DHT22;27586;51.124;4.182;2024-03-08T05:44:13;3.90;99.90
41904;DHT22;27586;51.124;4.182;2024-03-08T05:46:39;4.00;99.90
41904;DHT22;27586;51.124;4.182;2024-03-08T05:49:08;4.00;99.90
41904;DHT22;27586;51.124;4.182;2024-03-08T05:51:36;4.00;99.90
41904;DHT22;27586;51.124;4.182;2024-03-08T05:54:03;3.90;99.90
41904;DHT22;27586;51.124;4.182;2024-03-08T05:56:31;4.00;99.90
41904;DHT22;27586;51.124;4.182;2024-03-08T05:58:57;4.00;99.90
41904;DHT22;27586;51.124;4.182;2024-03-08T06:01:24;3.90;99.90
41904;DHT22;27586;51.124;4.182;2024-03-08T06:03:50;3.90;99.90
41904;DHT22;27586;51.124;4.182;2024-03-08T06:06:16;3.90;99.90
41904;DHT22;27586;51.124;4.182;2024-03-08T06:08:43;3.90;99.90
41904;DHT22;27586;51.124;4.182;2024-03-08T06:11:09;3.90;99.90
41904;DHT22;27586;51.124;4.182;2024-03-08T06:13:35;3.90;99.90
41904;DHT22;27586;51.124;4.182;2024-03-08T06:16:01;3.90;99.90
41904;DHT22;27586;51.124;4.182;2024-03-08T06:18:30;3.90;99.90
41904;DHT22;27586;51.124;4.182;2024-03-08T06:20:56;3.80;99.90
41904;DHT22;27586;51.124;4.182;2024-03-08T06:23:22;3.80;99.90
41904;DHT22;27586;51.124;4.182;2024-03-08T06:25:48;3.80;99.90
41904;DHT22;27586;51.124;4.182;2024-03-08T06:28:14;3.70;99.90
41904;DHT22;27586;51.124;4.182;2024-03-08T06:30:40;3.90;99.90
41904;DHT22;27586;51.124;4.182;2024-03-08T06:33:06;3.80;99.90
41904;DHT22;27586;51.124;4.182;2024-03-08T06:35:36;3.80;99.90
41904;DHT22;27586;51.124;4.182;2024-03-08T06:38:04;4.00;99.90
41904;DHT22;27586;51.124;4.182;2024-03-08T06:40:30;3.80;99.90
41904;DHT22;27586;51.124;4.182;2024-03-08T06:42:55;3.90;99.90
41904;DHT22;27586;51.124;4.182;2024-03-08T06:45:21;3.90;99.90
41904;DHT22;27586;51.124;4.182;2024-03-08T06:47:49;3.90;99.90
41904;DHT22;27586;51.124;4.182;2024-03-08T06:50:15;3.80;99.90
41904;DHT22;27586;51.124;4.182;2024-03-08T06:52:41;3.80;99.90
41904;DHT22;27586;51.124;4.182;2024-03-08T06:55:12;3.80;99.90
41904;DHT22;27586;51.124;4.182;2024-03-08T06:57:40;3.80;99.90
41904;DHT22;27586;51.124;4.182;2024-03-08T07:00:07;3.80;99.90
41904;DHT22;27586;51.124;4.182;2024-03-08T07:02:35;3.90;99.90
41904;DHT22;27586;51.124;4.182;2024-03-08T07:05:01;4.00;99.90
41904;DHT22;27586;51.124;4.182;2024-03-08T07:07:28;3.90;99.90
41904;DHT22;27586;51.124;4.182;2024-03-08T07:09:55;4.00;99.90
41904;DHT22;27586;51.124;4.182;2024-03-08T07:12:22;4.00;99.90
41904;DHT22;27586;51.124;4.182;2024-03-08T07:14:49;4.00;99.90
41904;DHT22;27586;51.124;4.182;2024-03-08T07:17:15;4.00;99.90
41904;DHT22;27586;51.124;4.182;2024-03-08T07:19:42;4.10;99.90
41904;DHT22;27586;51.124;4.182;2024-03-08T07:22:07;4.20;99.90
41904;DHT22;27586;51.124;4.182;2024-03-08T07:24:36;4.20;99.90
41904;DHT22;27586;51.124;4.182;2024-03-08T07:27:03;4.30;99.90
41904;DHT22;27586;51.124;4.182;2024-03-08T07:29:31;4.40;99.90
41904;DHT22;27586;51.124;4.182;2024-03-08T07:31:56;4.50;99.90
41904;DHT22;27586;51.124;4.182;2024-03-08T07:34:49;4.60;99.90
41904;DHT22;27586;51.124;4.182;2024-03-08T07:37:18;4.50;99.90
41904;DHT22;27586;51.124;4.182;2024-03-08T07:39:46;4.60;99.90
41904;DHT22;27586;51.124;4.182;2024-03-08T07:42:11;4.70;99.90
41904;DHT22;27586;51.124;4.182;2024-03-08T07:44:38;4.70;99.90
41904;DHT22;27586;51.124;4.182;2024-03-08T07:47:03;4.90;99.90
41904;DHT22;27586;51.124;4.182;2024-03-08T07:49:30;5.00;99.90
41904;DHT22;27586;51.124;4.182;2024-03-08T07:51:56;5.00;99.90
41904;DHT22;27586;51.124;4.182;2024-03-08T07:54:23;5.20;99.90
41904;DHT22;27586;51.124;4.182;2024-03-08T07:56:49;5.30;99.90
41904;DHT22;27586;51.124;4.182;2024-03-08T07:59:16;5.40;99.90
41904;DHT22;27586;51.124;4.182;2024-03-08T08:01:42;5.40;99.90
41904;DHT22;27586;51.124;4.182;2024-03-08T08:04:09;5.40;99.90
41904;DHT22;27586;51.124;4.182;2024-03-08T08:06:38;5.50;99.90
41904;DHT22;27586;51.124;4.182;2024-03-08T08:09:06;5.50;99.90
41904;DHT22;27586;51.124;4.182;2024-03-08T08:11:40;5.60;99.90
41904;DHT22;27586;51.124;4.182;2024-03-08T08:14:06;5.70;99.90
41904;DHT22;27586;51.124;4.182;2024-03-08T08:16:35;5.50;99.90
41904;DHT22;27586;51.124;4.182;2024-03-08T08:19:02;5.40;99.90
41904;DHT22;27586;51.124;4.182;2024-03-08T08:21:36;5.50;99.90
41904;DHT22;27586;51.124;4.182;2024-03-08T08:24:04;5.70;99.90
41904;DHT22;27586;51.124;4.182;2024-03-08T08:26:30;5.80;99.90
41904;DHT22;27586;51.124;4.182;2024-03-08T08:28:56;5.80;99.90
41904;DHT22;27586;51.124;4.182;2024-03-08T08:31:22;5.80;99.90
41904;DHT22;27586;51.124;4.182;2024-03-08T08:33:48;6.00;99.90
41904;DHT22;27586;51.124;4.182;2024-03-08T08:36:14;6.10;99.90
41904;DHT22;27586;51.124;4.182;2024-03-08T08:38:40;6.10;99.90
41904;DHT22;27586;51.124;4.182;2024-03-08T08:41:09;6.30;99.90
41904;DHT22;27586;51.124;4.182;2024-03-08T08:43:36;6.40;99.90
41904;DHT22;27586;51.124;4.182;2024-03-08T08:46:02;6.40;99.90
41904;DHT22;27586;51.124;4.182;2024-03-08T08:48:28;6.40;99.90
41904;DHT22;27586;51.124;4.182;2024-03-08T08:50:54;6.50;99.90
41904;DHT22;27586;51.124;4.182;2024-03-08T08:53:20;6.50;99.90
41904;DHT22;27586;51.124;4.182;2024-03-08T08:55:47;6.50;99.90
41904;DHT22;27586;51.124;4.182;2024-03-08T08:58:13;6.70;99.90
41904;DHT22;27586;51.124;4.182;2024-03-08T09:00:39;6.70;99.90
41904;DHT22;27586;51.124;4.182;2024-03-08T09:03:05;6.60;99.90
41904;DHT22;27586;51.124;4.182;2024-03-08T09:05:34;6.70;99.90
41904;DHT22;27586;51.124;4.182;2024-03-08T09:08:00;6.90;99.90
41904;DHT22;27586;51.124;4.182;2024-03-08T09:10:26;6.90;99.90
41904;DHT22;27586;51.124;4.182;2024-03-08T09:12:53;6.90;99.90
41904;DHT22;27586;51.124;4.182;2024-03-08T09:15:19;6.90;99.90
41904;DHT22;27586;51.124;4.182;2024-03-08T09:17:46;7.20;99.90
41904;DHT22;27586;51.124;4.182;2024-03-08T09:20:12;7.00;99.90
41904;DHT22;27586;51.124;4.182;2024-03-08T09:22:44;7.20;99.90
41904;DHT22;27586;51.124;4.182;2024-03-08T09:25:10;7.40;99.90
41904;DHT22;27586;51.124;4.182;2024-03-08T09:27:35;7.50;99.90
41904;DHT22;27586;51.124;4.182;2024-03-08T09:30:02;7.30;99.90
41904;DHT22;27586;51.124;4.182;2024-03-08T09:32:28;7.40;99.90
41904;DHT22;27586;51.124;4.182;2024-03-08T09:34:53;7.40;99.90
41904;DHT22;27586;51.124;4.182;2024-03-08T09:37:19;7.50;99.90
41904;DHT22;27586;51.124;4.182;2024-03-08T09:39:45;7.50;99.90
41904;DHT22;27586;51.124;4.182;2024-03-08T09:42:11;7.70;99.90
41904;DHT22;27586;51.124;4.182;2024-03-08T09:44:46;7.80;99.90
41904;DHT22;27586;51.124;4.182;2024-03-08T09:47:13;7.80;99.90
41904;DHT22;27586;51.124;4.182;2024-03-08T09:49:40;8.00;99.90
41904;DHT22;27586;51.124;4.182;2024-03-08T09:52:10;8.20;99.90
41904;DHT22;27586;51.124;4.182;2024-03-08T09:54:36;8.30;99.90
41904;DHT22;27586;51.124;4.182;2024-03-08T09:57:04;8.30;99.90
41904;DHT22;27586;51.124;4.182;2024-03-08T09:59:30;8.50;99.90
41904;DHT22;27586;51.124;4.182;2024-03-08T10:02:14;8.50;99.90
41904;DHT22;27586;51.124;4.182;2024-03-08T10:04:40;8.50;99.90
41904;DHT22;27586;51.124;4.182;2024-03-08T10:07:11;8.60;99.90
41904;DHT22;27586;51.124;4.182;2024-03-08T10:09:38;8.70;99.90
41904;DHT22;27586;51.124;4.182;2024-03-08T10:12:04;8.80;99.90
41904;DHT22;27586;51.124;4.182;2024-03-08T10:14:31;8.90;99.90
41904;DHT22;27586;51.124;4.182;2024-03-08T10:16:59;9.00;99.90
41904;DHT22;27586;51.124;4.182;2024-03-08T10:19:27;9.10;99.90
41904;DHT22;27586;51.124;4.182;2024-03-08T10:21:55;9.20;99.90
41904;DHT22;27586;51.124;4.182;2024-03-08T10:24:25;9.20;99.90
41904;DHT22;27586;51.124;4.182;2024-03-08T10:27:09;9.30;99.90
41904;DHT22;27586;51.124;4.182;2024-03-08T10:29:36;9.30;99.90
41904;DHT22;27586;51.124;4.182;2024-03-08T10:32:03;9.30;99.90
41904;DHT22;27586;51.124;4.182;2024-03-08T10:34:31;9.30;99.90
41904;DHT22;27586;51.124;4.182;2024-03-08T10:37:04;9.40;99.90
41904;DHT22;27586;51.124;4.182;2024-03-08T10:39:37;9.50;99.90
41904;DHT22;27586;51.124;4.182;2024-03-08T10:42:05;9.50;99.90
41904;DHT22;27586;51.124;4.182;2024-03-08T10:44:46;9.40;99.90
41904;DHT22;27586;51.124;4.182;2024-03-08T10:47:19;9.40;99.90
41904;DHT22;27586;51.124;4.182;2024-03-08T10:49:54;9.60;99.90
41904;DHT22;27586;51.124;4.182;2024-03-08T10:52:20;9.70;99.90
41904;DHT22;27586;51.124;4.182;2024-03-08T10:54:48;9.70;99.90
41904;DHT22;27586;51.124;4.182;2024-03-08T10:57:18;9.70;99.90
41904;DHT22;27586;51.124;4.182;2024-03-08T10:59:46;9.70;99.90
41904;DHT22;27586;51.124;4.182;2024-03-08T11:02:12;9.70;99.90
41904;DHT22;27586;51.124;4.182;2024-03-08T11:04:38;9.70;99.90
41904;DHT22;27586;51.124;4.182;2024-03-08T11:07:04;9.80;99.90
41904;DHT22;27586;51.124;4.182;2024-03-08T11:09:35;9.90;99.90
41904;DHT22;27586;51.124;4.182;2024-03-08T11:12:28;9.90;99.90
41904;DHT22;27586;51.124;4.182;2024-03-08T11:15:02;10.20;99.90
41904;DHT22;27586;51.124;4.182;2024-03-08T11:19:58;10.10;99.90
41904;DHT22;27586;51.124;4.182;2024-03-08T11:22:29;10.20;99.90
41904;DHT22;27586;51.124;4.182;2024-03-08T11:25:04;10.30;99.90
41904;DHT22;27586;51.124;4.182;2024-03-08T11:27:36;10.30;99.90
41904;DHT22;27586;51.124;4.182;2024-03-08T11:30:07;10.30;99.90
41904;DHT22;27586;51.124;4.182;2024-03-08T11:32:43;10.30;99.90
41904;DHT22;27586;51.124;4.182;2024-03-08T11:35:19;10.20;99.90
41904;DHT22;27586;51.124;4.182;2024-03-08T11:37:45;10.30;99.90
41904;DHT22;27586;51.124;4.182;2024-03-08T11:40:15;10.40;99.90
41904;DHT22;27586;51.124;4.182;2024-03-08T11:42:45;10.40;99.90
41904;DHT22;27586;51.124;4.182;2024-03-08T11:45:18;10.50;99.90
41904;DHT22;27586;51.124;4.182;2024-03-08T11:47:46;10.60;99.90
41904;DHT22;27586;51.124;4.182;2024-03-08T11:50:13;10.70;99.50
41904;DHT22;27586;51.124;4.182;2024-03-08T11:52:39;10.70;99.90
41904;DHT22;27586;51.124;4.182;2024-03-08T11:55:06;10.70;99.90
41904;DHT22;27586;51.124;4.182;2024-03-08T11:57:32;10.70;99.60
41904;DHT22;27586;51.124;4.182;2024-03-08T11:59:59;10.70;99.80
41904;DHT22;27586;51.124;4.182;2024-03-08T12:02:32;10.80;99.90
41904;DHT22;27586;51.124;4.182;2024-03-08T12:05:01;11.00;99.80
41904;DHT22;27586;51.124;4.182;2024-03-08T12:07:29;11.10;99.90
41904;DHT22;27586;51.124;4.182;2024-03-08T12:10:23;11.00;99.50
41904;DHT22;27586;51.124;4.182;2024-03-08T12:12:50;11.00;99.60
41904;DHT22;27586;51.124;4.182;2024-03-08T12:15:17;11.10;99.50
41904;DHT22;27586;51.124;4.182;2024-03-08T12:17:44;11.10;99.50
41904;DHT22;27586;51.124;4.182;2024-03-08T12:20:20;11.20;99.80
41904;DHT22;27586;51.124;4.182;2024-03-08T12:22:52;11.30;99.30
41904;DHT22;27586;51.124;4.182;2024-03-08T12:25:19;11.20;99.00
41904;DHT22;27586;51.124;4.182;2024-03-08T12:27:46;11.20;99.10
41904;DHT22;27586;51.124;4.182;2024-03-08T12:30:23;11.20;99.20
41904;DHT22;27586;51.124;4.182;2024-03-08T12:32:57;11.30;99.10
41904;DHT22;27586;51.124;4.182;2024-03-08T12:35:25;11.40;99.40
41904;DHT22;27586;51.124;4.182;2024-03-08T12:37:52;11.30;99.20
41904;DHT22;27586;51.124;4.182;2024-03-08T12:40:19;11.30;99.20
41904;DHT22;27586;51.124;4.182;2024-03-08T12:42:50;11.30;99.40
41904;DHT22;27586;51.124;4.182;2024-03-08T12:45:16;11.20;99.70
41904;DHT22;27586;51.124;4.182;2024-03-08T12:47:42;11.40;99.90
41904;DHT22;27586;51.124;4.182;2024-03-08T12:50:10;11.60;99.90
41904;DHT22;27586;51.124;4.182;2024-03-08T12:52:35;11.80;98.80
41904;DHT22;27586;51.124;4.182;2024-03-08T12:55:02;11.70;99.70
41904;DHT22;27586;51.124;4.182;2024-03-08T12:57:28;11.80;98.50
41904;DHT22;27586;51.124;4.182;2024-03-08T12:59:54;11.80;98.90
41904;DHT22;27586;51.124;4.182;2024-03-08T13:02:20;11.70;98.80
41904;DHT22;27586;51.124;4.182;2024-03-08T13:04:46;11.70;99.00
41904;DHT22;27586;51.124;4.182;2024-03-08T13:07:21;11.60;98.90
41904;DHT22;27586;51.124;4.182;2024-03-08T13:09:47;11.60;99.00
41904;DHT22;27586;51.124;4.182;2024-03-08T13:12:13;11.70;98.70
41904;DHT22;27586;51.124;4.182;2024-03-08T13:14:40;11.80;98.80
41904;DHT22;27586;51.124;4.182;2024-03-08T13:17:06;11.70;98.80
41904;DHT22;27586;51.124;4.182;2024-03-08T13:19:36;11.60;98.70
41904;DHT22;27586;51.124;4.182;2024-03-08T13:22:04;11.60;99.00
41904;DHT22;27586;51.124;4.182;2024-03-08T13:24:30;11.70;99.30
41904;DHT22;27586;51.124;4.182;2024-03-08T13:26:56;11.70;99.60
41904;DHT22;27586;51.124;4.182;2024-03-08T13:29:22;11.70;99.40
41904;DHT22;27586;51.124;4.182;2024-03-08T13:31:48;11.90;99.20
41904;DHT22;27586;51.124;4.182;2024-03-08T13:34:17;11.90;98.80
41904;DHT22;27586;51.124;4.182;2024-03-08T13:36:44;11.90;98.60
41904;DHT22;27586;51.124;4.182;2024-03-08T13:39:10;11.80;98.60
41904;DHT22;27586;51.124;4.182;2024-03-08T13:41:46;11.80;99.10
41904;DHT22;27586;51.124;4.182;2024-03-08T13:44:12;11.80;99.30
41904;DHT22;27586;51.124;4.182;2024-03-08T13:46:38;11.70;99.20
41904;DHT22;27586;51.124;4.182;2024-03-08T13:49:05;11.80;99.70
41904;DHT22;27586;51.124;4.182;2024-03-08T13:51:33;11.80;99.90
41904;DHT22;27586;51.124;4.182;2024-03-08T13:53:59;11.90;99.90
41904;DHT22;27586;51.124;4.182;2024-03-08T13:56:29;11.80;99.40
41904;DHT22;27586;51.124;4.182;2024-03-08T13:58:57;11.90;99.60
41904;DHT22;27586;51.124;4.182;2024-03-08T14:01:23;11.80;99.50
41904;DHT22;27586;51.124;4.182;2024-03-08T14:03:49;11.90;99.30
41904;DHT22;27586;51.124;4.182;2024-03-08T14:06:16;11.80;99.80
41904;DHT22;27586;51.124;4.182;2024-03-08T14:08:42;11.90;99.90
41904;DHT22;27586;51.124;4.182;2024-03-08T14:11:07;11.70;99.90
41904;DHT22;27586;51.124;4.182;2024-03-08T14:13:41;11.70;99.90
41904;DHT22;27586;51.124;4.182;2024-03-08T14:16:11;11.80;99.90
41904;DHT22;27586;51.124;4.182;2024-03-08T14:18:36;11.70;99.60
41904;DHT22;27586;51.124;4.182;2024-03-08T14:21:03;11.70;99.80
41904;DHT22;27586;51.124;4.182;2024-03-08T14:23:29;11.80;99.90
41904;DHT22;27586;51.124;4.182;2024-03-08T14:25:55;11.80;99.60
41904;DHT22;27586;51.124;4.182;2024-03-08T14:28:21;11.80;99.50
41904;DHT22;27586;51.124;4.182;2024-03-08T14:30:48;11.70;99.40
41904;DHT22;27586;51.124;4.182;2024-03-08T14:33:14;11.60;99.70
41904;DHT22;27586;51.124;4.182;2024-03-08T14:35:41;11.70;99.80
41904;DHT22;27586;51.124;4.182;2024-03-08T14:38:08;11.70;99.90
41904;DHT22;27586;51.124;4.182;2024-03-08T14:40:39;11.60;99.80
41904;DHT22;27586;51.124;4.182;2024-03-08T14:43:05;11.70;99.70
41904;DHT22;27586;51.124;4.182;2024-03-08T14:45:31;11.70;99.50
41904;DHT22;27586;51.124;4.182;2024-03-08T14:47:57;11.80;99.80
41904;DHT22;27586;51.124;4.182;2024-03-08T14:50:24;11.80;99.90
41904;DHT22;27586;51.124;4.182;2024-03-08T14:52:50;11.90;99.90
41904;DHT22;27586;51.124;4.182;2024-03-08T14:55:20;12.00;99.40
41904;DHT22;27586;51.124;4.182;2024-03-08T14:57:50;12.00;99.60
41904;DHT22;27586;51.124;4.182;2024-03-08T15:00:18;12.00;99.70
41904;DHT22;27586;51.124;4.182;2024-03-08T15:02:55;12.10;99.70
41904;DHT22;27586;51.124;4.182;2024-03-08T15:05:22;12.10;99.60
41904;DHT22;27586;51.124;4.182;2024-03-08T15:07:52;12.10;99.50
41904;DHT22;27586;51.124;4.182;2024-03-08T15:10:18;12.00;99.30
41904;DHT22;27586;51.124;4.182;2024-03-08T15:12:48;12.00;99.90
41904;DHT22;27586;51.124;4.182;2024-03-08T15:15:14;11.80;99.50
41904;DHT22;27586;51.124;4.182;2024-03-08T15:17:43;11.80;99.90
41904;DHT22;27586;51.124;4.182;2024-03-08T15:20:12;11.80;99.60
41904;DHT22;27586;51.124;4.182;2024-03-08T15:22:51;11.80;99.90
41904;DHT22;27586;51.124;4.182;2024-03-08T15:25:24;11.80;99.90
41904;DHT22;27586;51.124;4.182;2024-03-08T15:27:53;11.80;99.70
41904;DHT22;27586;51.124;4.182;2024-03-08T15:30:19;11.70;99.60
41904;DHT22;27586;51.124;4.182;2024-03-08T15:32:48;11.70;99.30
41904;DHT22;27586;51.124;4.182;2024-03-08T15:35:16;11.80;99.60
41904;DHT22;27586;51.124;4.182;2024-03-08T15:37:45;11.70;99.50
41904;DHT22;27586;51.124;4.182;2024-03-08T15:40:12;11.70;99.80
41904;DHT22;27586;51.124;4.182;2024-03-08T15:42:56;11.70;99.50
41904;DHT22;27586;51.124;4.182;2024-03-08T15:45:23;11.70;99.80
41904;DHT22;27586;51.124;4.182;2024-03-08T15:47:50;11.70;99.70